createdAt,value
2023-03-20T00:00:37.363Z,16.90
2023-03-20T00:03:04.547Z,17.60
2023-03-20T00:05:31.971Z,18.27
2023-03-20T00:07:59.560Z,17.97
2023-03-20T00:10:35.753Z,18.67
2023-03-20T00:13:03.557Z,18.70
2023-03-20T00:15:35.576Z,18.07
2023-03-20T00:18:02.772Z,18.80
2023-03-20T00:20:31.548Z,18.30
2023-03-20T00:22:58.788Z,19.37
2023-03-20T00:25:26.593Z,20.03
2023-03-20T00:27:53.918Z,19.10
2023-03-20T00:30:24.539Z,19.83
2023-03-20T00:32:53.551Z,17.83
2023-03-20T00:35:26.352Z,17.37
2023-03-20T00:37:53.428Z,18.10
2023-03-20T00:40:21.766Z,18.70
2023-03-20T00:42:54.132Z,19.53
2023-03-20T00:45:21.526Z,19.10
2023-03-20T00:47:51.401Z,17.53
2023-03-20T00:50:21.840Z,19.33
2023-03-20T00:52:49.320Z,18.37
2023-03-20T00:55:16.777Z,17.37
2023-03-20T00:57:48.653Z,17.30
2023-03-20T01:00:27.735Z,16.87
2023-03-20T01:02:56.695Z,16.77
2023-03-20T01:05:25.608Z,16.67
2023-03-20T01:07:54.364Z,18.43
2023-03-20T01:10:32.128Z,17.53
2023-03-20T01:13:01.375Z,18.17
2023-03-20T01:15:32.579Z,17.30
2023-03-20T01:17:59.657Z,17.30
2023-03-20T01:20:29.213Z,16.60
2023-03-20T01:22:56.127Z,17.50
2023-03-20T01:25:23.216Z,18.03
2023-03-20T01:27:52.569Z,18.07
2023-03-20T01:30:23.735Z,19.57
2023-03-20T01:32:51.012Z,18.00
2023-03-20T01:35:22.763Z,19.60
2023-03-20T01:37:50.250Z,18.03
2023-03-20T01:40:41.955Z,20.47
2023-03-20T01:43:18.501Z,18.13
2023-03-20T01:46:22.669Z,18.20
2023-03-20T01:48:55.077Z,17.77
2023-03-20T01:51:32.800Z,17.17
2023-03-20T01:54:11.952Z,18.87
2023-03-20T01:57:04.304Z,18.23
2023-03-20T01:59:39.188Z,16.83
2023-03-20T02:02:07.270Z,18.33
2023-03-20T02:04:45.751Z,17.77
2023-03-20T02:07:18.190Z,18.70
2023-03-20T02:10:11.314Z,19.40
2023-03-20T02:13:02.875Z,19.00
2023-03-20T02:15:36.586Z,18.73
2023-03-20T02:18:11.299Z,19.90
2023-03-20T02:21:08.715Z,18.23
2023-03-20T02:24:27.097Z,18.37
2023-03-20T02:26:54.812Z,18.33
2023-03-20T02:29:22.485Z,19.10
2023-03-20T02:32:28.761Z,18.67
2023-03-20T02:35:14.092Z,17.63
2023-03-20T02:38:05.699Z,17.30
2023-03-20T02:40:44.216Z,17.07
2023-03-20T02:43:28.874Z,17.97
2023-03-20T02:46:18.695Z,17.17
2023-03-20T02:49:00.553Z,16.07
2023-03-20T02:51:54.656Z,16.53
2023-03-20T02:54:34.435Z,16.47
2023-03-20T02:57:26.640Z,18.23
2023-03-20T03:00:09.741Z,17.67
2023-03-20T03:02:50.676Z,17.10
2023-03-20T03:05:24.469Z,16.53
2023-03-20T03:07:55.756Z,16.87
2023-03-20T03:10:29.791Z,16.50
2023-03-20T03:12:59.696Z,16.33
2023-03-20T03:15:34.378Z,16.97
2023-03-20T03:18:06.345Z,16.67
2023-03-20T03:20:37.895Z,18.27
2023-03-20T03:23:06.588Z,15.37
2023-03-20T03:25:38.025Z,16.90
2023-03-20T03:28:45.667Z,16.13
2023-03-20T03:31:15.568Z,16.23
2023-03-20T03:33:46.825Z,17.53
2023-03-20T03:37:07.367Z,18.83
2023-03-20T03:39:52.769Z,18.17
2023-03-20T03:42:33.607Z,18.50
2023-03-20T03:45:10.362Z,18.87
2023-03-20T03:47:55.791Z,19.47
2023-03-20T03:50:29.712Z,19.30
2023-03-20T03:53:03.358Z,17.93
2023-03-20T03:55:36.384Z,22.00
2023-03-20T03:58:30.272Z,22.60
2023-03-20T04:00:59.821Z,20.80
2023-03-20T04:03:32.856Z,20.23
2023-03-20T04:06:02.934Z,19.97
2023-03-20T04:08:30.316Z,20.40
2023-03-20T04:10:59.925Z,20.60
2023-03-20T04:13:26.992Z,21.40
2023-03-20T04:15:54.183Z,23.57
2023-03-20T04:18:21.587Z,22.10
2023-03-20T04:20:48.924Z,22.87
2023-03-20T04:23:17.073Z,22.27
2023-03-20T04:25:44.341Z,22.53
2023-03-20T04:28:11.844Z,22.63
2023-03-20T04:30:59.512Z,21.63
2023-03-20T04:33:37.789Z,21.87
2023-03-20T04:36:13.692Z,20.87
2023-03-20T04:38:41.251Z,19.73
2023-03-20T04:41:08.785Z,19.40
2023-03-20T04:43:36.145Z,21.23
2023-03-20T04:46:03.466Z,20.80
2023-03-20T04:48:32.153Z,22.00
2023-03-20T04:50:59.303Z,20.30
2023-03-20T04:53:38.317Z,20.00
2023-03-20T04:56:05.680Z,20.13
2023-03-20T04:58:35.803Z,18.80
2023-03-20T05:01:03.720Z,19.07
2023-03-20T05:03:30.867Z,19.13
2023-03-20T05:05:57.711Z,18.70
2023-03-20T05:08:25.958Z,19.60
2023-03-20T05:10:56.732Z,18.30
2023-03-20T05:13:42.666Z,18.27
2023-03-20T05:16:45.118Z,20.07
2023-03-20T05:19:21.376Z,18.67
2023-03-20T05:22:11.808Z,18.57
2023-03-20T05:24:57.339Z,19.03
2023-03-20T05:27:44.798Z,19.13
2023-03-20T05:30:30.650Z,19.93
2023-03-20T05:33:21.590Z,19.97
2023-03-20T05:36:07.988Z,17.67
2023-03-20T05:38:49.706Z,19.60
2023-03-20T05:41:25.800Z,17.73
2023-03-20T05:44:11.178Z,18.77
2023-03-20T05:46:56.844Z,18.87
2023-03-20T05:50:02.830Z,23.85
2023-03-20T05:52:37.896Z,19.70
2023-03-20T05:55:20.272Z,19.43
2023-03-20T05:58:13.723Z,18.67
2023-03-20T06:01:06.946Z,19.87
2023-03-20T06:03:55.985Z,19.93
2023-03-20T06:06:43.071Z,19.63
2023-03-20T06:09:10.425Z,18.50
2023-03-20T06:11:37.803Z,21.00
2023-03-20T06:14:06.084Z,19.90
2023-03-20T06:16:38.436Z,20.20
2023-03-20T06:19:05.633Z,19.40
2023-03-20T06:21:33.034Z,20.73
2023-03-20T06:24:00.530Z,23.03
2023-03-20T06:26:28.762Z,20.60
2023-03-20T06:29:06.209Z,21.63
2023-03-20T06:31:33.862Z,20.67
2023-03-20T06:34:02.724Z,20.50
2023-03-20T06:36:31.361Z,19.73
2023-03-20T06:39:04.538Z,19.80
2023-03-20T06:41:34.862Z,18.93
2023-03-20T06:44:05.956Z,17.10
2023-03-20T06:46:52.936Z,17.20
2023-03-20T06:49:20.082Z,17.13
2023-03-20T06:51:48.231Z,15.63
2023-03-20T06:54:22.726Z,16.10
2023-03-20T06:56:49.864Z,16.20
2023-03-20T06:59:16.913Z,15.23
2023-03-20T07:01:44.755Z,15.10
2023-03-20T07:04:12.716Z,12.93
2023-03-20T07:06:46.824Z,13.73
2023-03-20T07:09:14.145Z,13.33
2023-03-20T07:11:41.584Z,12.53
2023-03-20T07:14:09.281Z,12.67
2023-03-20T07:17:05.292Z,12.30
2023-03-20T07:19:34.612Z,12.73
2023-03-20T07:22:06.167Z,12.37
2023-03-20T07:24:38.512Z,13.40
2023-03-20T07:27:05.764Z,11.93
2023-03-20T07:29:34.466Z,11.40
2023-03-20T07:32:02.699Z,10.57
2023-03-20T07:34:33.814Z,10.10
2023-03-20T07:37:01.281Z,10.27
2023-03-20T07:39:29.293Z,8.77
2023-03-20T07:42:19.304Z,9.63
2023-03-20T07:44:57.304Z,9.53
2023-03-20T07:47:24.370Z,8.87
2023-03-20T07:49:51.513Z,10.00
2023-03-20T07:52:18.578Z,10.13
2023-03-20T07:54:45.977Z,8.57
2023-03-20T07:57:14.512Z,10.27
2023-03-20T07:59:41.083Z,9.97
2023-03-20T08:02:08.394Z,10.20
2023-03-20T08:04:35.453Z,10.17
2023-03-20T08:07:02.666Z,10.80
2023-03-20T08:09:29.753Z,10.70
2023-03-20T08:11:56.779Z,12.60
2023-03-20T08:14:23.929Z,12.13
2023-03-20T08:17:06.242Z,11.37
2023-03-20T08:19:38.263Z,12.33
2023-03-20T08:22:05.523Z,13.67
2023-03-20T08:24:32.553Z,11.90
2023-03-20T08:26:59.965Z,12.03
2023-03-20T08:29:27.116Z,11.67
2023-03-20T08:31:54.154Z,13.33
2023-03-20T08:34:23.892Z,13.10
2023-03-20T08:36:52.369Z,12.43
2023-03-20T08:39:19.688Z,11.33
2023-03-20T08:41:46.879Z,12.00
2023-03-20T08:44:13.996Z,12.57
2023-03-20T08:46:41.096Z,11.53
2023-03-20T08:49:08.273Z,9.83
2023-03-20T08:51:35.472Z,9.67
2023-03-20T08:54:02.496Z,9.77
2023-03-20T08:56:29.583Z,10.73
2023-03-20T08:58:56.727Z,11.07
2023-03-20T09:01:28.433Z,10.53
2023-03-20T09:03:59.721Z,9.67
2023-03-20T09:06:27.019Z,10.93
2023-03-20T09:08:55.379Z,8.27
2023-03-20T09:11:22.430Z,10.47
2023-03-20T09:13:49.489Z,8.40
2023-03-20T09:16:16.609Z,8.17
2023-03-20T09:18:43.653Z,8.57
2023-03-20T09:21:10.308Z,8.30
2023-03-20T09:23:37.331Z,7.83
2023-03-20T09:26:04.490Z,8.53
2023-03-20T09:28:31.522Z,7.37
2023-03-20T09:30:59.103Z,6.50
2023-03-20T09:33:26.286Z,7.43
2023-03-20T09:35:53.591Z,7.80
2023-03-20T09:38:21.201Z,7.30
2023-03-20T09:40:56.841Z,6.97
2023-03-20T09:44:00.562Z,7.13
2023-03-20T09:46:33.529Z,7.50
2023-03-20T09:49:12.518Z,7.17
2023-03-20T09:51:56.129Z,7.23
2023-03-20T09:54:53.111Z,6.87
2023-03-20T09:57:28.080Z,7.73
2023-03-20T10:00:07.388Z,6.97
2023-03-20T10:03:01.428Z,7.23
2023-03-20T10:05:38.090Z,7.90
2023-03-20T10:08:07.617Z,7.87
2023-03-20T10:11:06.678Z,6.90
2023-03-20T10:13:58.355Z,7.23
2023-03-20T10:16:31.165Z,7.40
2023-03-20T10:19:07.724Z,7.40
2023-03-20T10:21:44.231Z,6.87
2023-03-20T10:24:31.856Z,6.70
2023-03-20T10:27:05.868Z,7.30
2023-03-20T10:29:52.763Z,7.33
2023-03-20T10:32:29.720Z,6.90
2023-03-20T10:35:33.528Z,6.90
2023-03-20T10:38:25.763Z,6.80
2023-03-20T10:40:54.102Z,6.40
2023-03-20T10:43:30.280Z,6.33
2023-03-20T10:46:20.201Z,6.87
2023-03-20T10:49:02.547Z,6.73
2023-03-20T10:51:56.723Z,5.67
2023-03-20T10:54:29.810Z,6.00
2023-03-20T10:57:00.116Z,5.40
2023-03-20T10:59:29.708Z,5.23
2023-03-20T11:01:56.767Z,5.00
2023-03-20T11:04:24.040Z,5.23
2023-03-20T11:07:26.854Z,4.80
2023-03-20T11:10:05.361Z,5.13
2023-03-20T11:12:53.291Z,4.63
2023-03-20T11:15:26.908Z,5.27
2023-03-20T11:17:59.512Z,5.13
2023-03-20T11:20:32.099Z,5.00
2023-03-20T11:23:02.823Z,5.00
2023-03-20T11:25:36.775Z,4.83
2023-03-20T11:28:24.809Z,5.03
2023-03-20T11:31:04.833Z,5.07
2023-03-20T11:33:32.758Z,5.20
2023-03-20T11:35:59.909Z,4.80
2023-03-20T11:38:27.047Z,5.40
2023-03-20T11:40:55.588Z,5.40
2023-03-20T11:43:24.637Z,5.20
2023-03-20T11:45:56.794Z,5.10
2023-03-20T11:48:25.990Z,5.50
2023-03-20T11:51:03.771Z,4.73
2023-03-20T11:53:41.378Z,4.77
2023-03-20T11:56:12.503Z,5.00
2023-03-20T11:59:06.000Z,5.60
2023-03-20T12:01:46.976Z,5.63
2023-03-20T12:04:17.928Z,5.20
2023-03-20T12:07:12.469Z,5.40
2023-03-20T12:09:51.218Z,5.53
2023-03-20T12:12:45.541Z,5.33
2023-03-20T12:15:36.954Z,6.07
2023-03-20T12:18:35.027Z,6.30
2023-03-20T12:21:07.753Z,5.50
2023-03-20T12:23:43.767Z,5.50
2023-03-20T12:26:38.721Z,6.33
2023-03-20T12:29:14.283Z,6.10
2023-03-20T12:31:46.601Z,5.93
2023-03-20T12:34:21.374Z,5.47
2023-03-20T12:36:50.453Z,5.80
2023-03-20T12:39:28.156Z,7.00
2023-03-20T12:42:19.323Z,5.47
2023-03-20T12:44:46.414Z,6.00
2023-03-20T12:47:44.456Z,5.30
2023-03-20T12:50:24.982Z,6.17
2023-03-20T12:53:25.028Z,5.30
2023-03-20T12:56:19.519Z,4.90
2023-03-20T12:58:57.166Z,4.93
2023-03-20T13:01:43.095Z,4.40
2023-03-20T13:04:25.053Z,4.00
2023-03-20T13:06:58.541Z,4.17
2023-03-20T13:09:35.838Z,5.03
2023-03-20T13:12:17.899Z,4.10
2023-03-20T13:15:07.952Z,4.20
2023-03-20T13:17:46.879Z,4.03
2023-03-20T13:20:27.221Z,4.03
2023-03-20T13:23:13.457Z,3.47
2023-03-20T13:26:25.524Z,3.50
2023-03-20T13:29:08.905Z,4.10
2023-03-20T13:32:16.717Z,4.23
2023-03-20T13:35:04.373Z,3.70
2023-03-20T13:37:36.445Z,4.57
2023-03-20T13:40:17.558Z,3.20
2023-03-20T13:42:50.992Z,4.10
2023-03-20T13:45:37.824Z,3.90
2023-03-20T13:48:24.700Z,3.77
2023-03-20T13:51:29.057Z,3.93
2023-03-20T13:54:14.701Z,3.77
2023-03-20T13:56:59.545Z,4.27
2023-03-20T13:59:44.217Z,3.33
2023-03-20T14:02:33.127Z,3.03
2023-03-20T14:05:09.288Z,3.40
2023-03-20T14:07:38.366Z,3.70
2023-03-20T14:10:24.024Z,3.43
2023-03-20T14:12:51.039Z,3.10
2023-03-20T14:15:20.295Z,3.13
2023-03-20T14:17:49.008Z,3.80
2023-03-20T14:20:33.066Z,3.00
2023-03-20T14:23:00.375Z,3.30
2023-03-20T14:25:33.142Z,3.37
2023-03-20T14:28:07.292Z,3.13
2023-03-20T14:30:39.448Z,2.67
2023-03-20T14:33:17.187Z,3.83
2023-03-20T14:35:51.209Z,3.20
2023-03-20T14:38:27.344Z,3.37
2023-03-20T14:41:16.687Z,3.30
2023-03-20T14:44:15.266Z,3.43
2023-03-20T14:47:04.981Z,3.10
2023-03-20T14:50:07.133Z,3.00
2023-03-20T14:52:52.760Z,3.77
2023-03-20T14:55:32.931Z,3.07
2023-03-20T14:58:04.378Z,3.00
2023-03-20T15:00:44.214Z,3.20
2023-03-20T15:03:15.286Z,3.03
2023-03-20T15:05:42.457Z,3.37
2023-03-20T15:08:34.705Z,5.20
2023-03-20T15:11:06.823Z,3.10
2023-03-20T15:13:34.941Z,3.00
2023-03-20T15:16:07.283Z,2.80
2023-03-20T15:18:50.940Z,2.83
2023-03-20T15:21:23.096Z,3.07
2023-03-20T15:23:49.686Z,4.03
2023-03-20T15:26:19.043Z,2.93
2023-03-20T15:28:46.953Z,2.77
2023-03-20T15:31:35.695Z,3.17
2023-03-20T15:34:07.128Z,2.50
2023-03-20T15:36:36.949Z,2.70
2023-03-20T15:39:25.488Z,3.60
2023-03-20T15:42:01.851Z,2.93
2023-03-20T15:44:35.877Z,3.80
2023-03-20T15:47:11.379Z,7.63
2023-03-20T15:49:43.107Z,4.70
2023-03-20T15:52:27.795Z,4.33
2023-03-20T15:54:56.978Z,3.80
2023-03-20T15:57:34.941Z,4.70
2023-03-20T16:00:07.485Z,4.50
2023-03-20T16:02:36.934Z,4.20
2023-03-20T16:05:04.192Z,3.80
2023-03-20T16:07:32.630Z,4.10
2023-03-20T16:10:00.165Z,4.97
2023-03-20T16:12:27.476Z,4.60
2023-03-20T16:14:54.779Z,4.47
2023-03-20T16:17:23.560Z,4.33
2023-03-20T16:19:51.679Z,4.77
2023-03-20T16:22:18.770Z,4.70
2023-03-20T16:24:50.309Z,4.90
2023-03-20T16:27:25.370Z,5.37
2023-03-20T16:29:53.860Z,4.97
2023-03-20T16:32:21.091Z,4.97
2023-03-20T16:34:51.291Z,6.23
2023-03-20T16:37:26.039Z,5.33
2023-03-20T16:40:04.741Z,6.93
2023-03-20T16:42:31.780Z,6.20
2023-03-20T16:44:58.918Z,7.20
2023-03-20T16:47:35.169Z,7.00
2023-03-20T16:50:11.035Z,6.60
2023-03-20T16:52:40.750Z,6.47
2023-03-20T16:55:16.283Z,6.33
2023-03-20T16:57:47.569Z,6.57
2023-03-20T17:00:29.646Z,6.60
2023-03-20T17:03:24.829Z,7.53
2023-03-20T17:05:59.478Z,6.83
2023-03-20T17:08:37.530Z,6.70
2023-03-20T17:11:16.937Z,9.30
2023-03-20T17:13:44.185Z,7.40
2023-03-20T17:16:15.196Z,6.83
2023-03-20T17:18:42.474Z,6.77
2023-03-20T17:21:10.413Z,6.77
2023-03-20T17:23:37.589Z,7.13
2023-03-20T17:26:04.764Z,7.60
2023-03-20T17:28:34.973Z,7.27
2023-03-20T17:31:05.124Z,8.43
2023-03-20T17:33:33.156Z,8.13
2023-03-20T17:36:00.823Z,6.70
2023-03-20T17:38:28.068Z,6.63
2023-03-20T17:40:55.145Z,6.70
2023-03-20T17:43:22.254Z,6.87
2023-03-20T17:45:49.512Z,6.10
2023-03-20T17:48:21.053Z,6.73
2023-03-20T17:50:50.828Z,6.00
2023-03-20T17:53:24.016Z,5.70
2023-03-20T17:55:52.206Z,7.03
2023-03-20T17:58:22.391Z,4.70
2023-03-20T18:00:50.418Z,4.90
2023-03-20T18:03:18.103Z,5.90
2023-03-20T18:05:49.949Z,4.97
2023-03-20T18:08:21.132Z,4.97
2023-03-20T18:10:53.010Z,4.60
2023-03-20T18:13:21.266Z,5.90
2023-03-20T18:15:53.146Z,4.10
2023-03-20T18:18:23.748Z,4.17
2023-03-20T18:20:52.153Z,4.93
2023-03-20T18:23:19.290Z,5.27
2023-03-20T18:25:46.488Z,4.70
2023-03-20T18:28:20.498Z,4.60
2023-03-20T18:30:48.651Z,4.10
2023-03-20T18:33:16.130Z,3.97
2023-03-20T18:35:43.377Z,4.73
2023-03-20T18:38:13.369Z,4.50
2023-03-20T18:40:42.485Z,4.57
2023-03-20T18:43:10.624Z,4.30
2023-03-20T18:45:39.049Z,4.47
2023-03-20T18:48:06.990Z,5.23
2023-03-20T18:50:37.661Z,4.77
2023-03-20T18:53:05.951Z,4.60
2023-03-20T18:55:32.829Z,5.07
2023-03-20T18:58:03.457Z,4.90
2023-03-20T19:00:37.895Z,4.63
2023-03-20T19:03:05.331Z,3.83
2023-03-20T19:05:32.943Z,4.10
2023-03-20T19:08:00.846Z,3.80
2023-03-20T19:10:37.161Z,4.27
2023-03-20T19:13:06.293Z,4.57
2023-03-20T19:15:38.659Z,4.90
2023-03-20T19:18:39.890Z,4.77
2023-03-20T19:21:07.091Z,4.67
2023-03-20T19:23:34.449Z,4.97
2023-03-20T19:26:01.527Z,4.10
2023-03-20T19:28:40.670Z,5.37
2023-03-20T19:31:09.758Z,5.37
2023-03-20T19:33:38.261Z,5.30
2023-03-20T19:36:06.586Z,5.47
2023-03-20T19:38:34.073Z,4.50
2023-03-20T19:41:02.502Z,5.23
2023-03-20T19:43:29.464Z,4.60
2023-03-20T19:45:59.323Z,5.10
2023-03-20T19:48:46.358Z,5.03
2023-03-20T19:51:17.030Z,5.60
2023-03-20T19:53:44.943Z,4.53
2023-03-20T19:56:12.479Z,3.90
2023-03-20T19:58:40.314Z,4.13
2023-03-20T20:01:15.093Z,4.43
2023-03-20T20:03:42.775Z,4.97
2023-03-20T20:06:10.028Z,4.57
2023-03-20T20:08:48.345Z,5.07
2023-03-20T20:11:19.427Z,5.00
2023-03-20T20:14:07.094Z,4.57
2023-03-20T20:16:34.400Z,4.50
2023-03-20T20:19:01.483Z,4.53
2023-03-20T20:22:13.191Z,4.87
2023-03-20T20:24:16.301Z,5.23
2023-03-20T20:26:53.213Z,5.60
2023-03-20T20:29:21.938Z,4.93
2023-03-20T20:31:49.074Z,5.57
2023-03-20T20:39:50.484Z,4.87
2023-03-20T20:42:17.609Z,4.70
2023-03-20T20:44:44.596Z,6.00
2023-03-20T20:47:12.043Z,5.27
2023-03-20T20:49:39.223Z,5.33
2023-03-20T20:52:06.406Z,6.23
2023-03-20T20:54:34.115Z,5.57
2023-03-20T20:57:01.459Z,5.20
2023-03-20T20:59:28.583Z,4.90
2023-03-20T21:01:56.407Z,4.80
2023-03-20T21:04:23.807Z,5.60
2023-03-20T21:07:08.845Z,4.87
2023-03-20T21:09:37.048Z,4.97
2023-03-20T21:12:04.504Z,5.00
2023-03-20T21:14:31.590Z,4.73
2023-03-20T21:17:02.188Z,7.13
2023-03-20T21:19:30.396Z,6.00
2023-03-20T21:21:57.340Z,5.77
2023-03-20T21:24:33.858Z,5.17
2023-03-20T21:27:06.879Z,5.10
2023-03-20T21:29:34.152Z,5.03
2023-03-20T21:32:01.355Z,5.70
2023-03-20T21:34:29.025Z,4.87
2023-03-20T21:36:57.854Z,4.90
2023-03-20T21:39:27.479Z,4.80
2023-03-20T21:41:54.583Z,5.27
2023-03-20T21:44:57.419Z,5.33
2023-03-20T21:51:21.861Z,4.60
2023-03-20T21:53:18.095Z,5.37
2023-03-20T21:56:31.464Z,5.13
2023-03-20T22:01:53.923Z,4.70
2023-03-20T22:13:01.523Z,4.40
2023-03-20T22:18:28.705Z,5.37
2023-03-20T22:21:23.924Z,5.40
2023-03-20T22:24:20.521Z,5.07
2023-03-20T22:27:18.896Z,4.47
2023-03-20T22:32:35.249Z,4.77
2023-03-20T22:38:08.963Z,4.90
2023-03-20T22:40:57.482Z,5.20
2023-03-20T22:43:59.682Z,5.23
2023-03-20T22:45:58.567Z,5.53
2023-03-20T22:48:32.826Z,5.43
2023-03-20T22:50:59.878Z,5.77
2023-03-20T22:53:26.960Z,5.37
2023-03-20T22:55:54.013Z,4.53
2023-03-20T22:58:21.244Z,5.10
2023-03-20T23:00:48.279Z,5.33
2023-03-20T23:03:29.630Z,4.63
2023-03-20T23:06:10.738Z,5.20
2023-03-20T23:08:48.086Z,6.20
2023-03-20T23:11:17.783Z,5.43
2023-03-20T23:13:45.108Z,5.23
2023-03-20T23:16:11.845Z,5.30
2023-03-20T23:18:39.145Z,6.67
2023-03-20T23:21:06.232Z,6.30
2023-03-20T23:23:33.290Z,5.87
2023-03-20T23:26:12.501Z,6.70
2023-03-20T23:28:40.686Z,6.27
2023-03-20T23:31:23.051Z,5.60
2023-03-20T23:33:55.517Z,5.83
2023-03-20T23:36:35.273Z,7.17
2023-03-20T23:39:05.608Z,5.60
2023-03-20T23:42:01.877Z,6.03
2023-03-20T23:44:19.263Z,5.77
2023-03-20T23:46:48.169Z,6.00
2023-03-20T23:49:16.306Z,5.77
2023-03-20T23:51:43.368Z,6.27
2023-03-20T23:54:10.174Z,6.47
2023-03-20T23:56:37.286Z,6.30
2023-03-20T23:59:18.332Z,6.23
